Casa Grande, AZ (85122)

11:14 AM MST on July 24, 2014 (GMT -0700)
Vyn's tower (KAZARIZO3) Elev 1530 ft | 32.73 °N, 111.66 °W | Change Station

Current weather conditions updated 18 seconds ago

Clear
Clear
104.5 °F
Feels Like 101 °F
N
13.0
Wind Variable Wind from SE
Gusts 19.0 mph

Today is forecast to be nearly the same temperature as yesterday.

Today
High -- | Low -- °F
--% Chance of Precip.
Yesterday
High -- | Low -- °F
Precip. -- in
5:36 AM 7:31 PM
Waning Crescent, 4% visible
Pressure 29.88 in
Visibility 10.0 miles
Clouds Clear
Heat Index 101 °F
Dew Point 49 °F
Humidity 16%
Rainfall 0.00 in
Snow Depth Not available.
UV 11 out of 12
Pollen 3.90 out of 12
Air Quality Not available.
Flu Activity Not available.
METAR KCGZ 241755Z AUTO 09007KT 10SM CLR 40/12 A2988 RMK AO1 10400 20300 57007

More Conditions Fewer Conditions

Pressure 29.88 in
Visibility 10.0 miles
Clouds Clear
Heat Index 101 °F
Dew Point 49 °F
Humidity 16%
Rainfall 0.00 in
Snow Depth Not available.
UV 11 out of 12
Pollen 3.90 out of 12
Air Quality Not available.
Flu Activity Not available.
METAR KCGZ 241755Z AUTO 09007KT 10SM CLR 40/12 A2988 RMK AO1 10400 20300 57007

More Conditions Fewer Conditions

10-Day Weather Forecast

Almanac

Astronomy

Jul. 24, 2014 Rise Set
Actual Time 5:36 AM MST 7:31 PM MST
Civil Twilight 5:08 AM MST 7:58 PM MST
Nautical Twilight 4:35 AM MST 8:32 PM MST
Astronomical Twilight 4:00 AM MST 9:07 PM MST
Moon 3:46 AM MST 5:51 PM MST
Length of Visible Light 14h 50m
Length of Day
13h 55m
Tomorrow will be 1m 19s shorter.
Waning Crescent, 4% of the Moon is Illuminated
Today
Waning Crescent
Jul 26
New
Aug 3
First Quarter
Aug 10
Full
Aug 17
Last Quarter

Today's Extremes

State Highs State Lows

Community

WunderPhotos

Upload Photos

1,737,087 photos uploaded!

Nearby

Snow Depth

Station Depth Elevation
Workman Creek 0 in 6900 ft
White Horse Lake 0 in 7180 ft
Beaver Head 0 in 7990 ft
Snowslide Canyon 0 in 9730 ft

Earthquake Activity

City Distance Mag. Time & Date
No recent earthquake activity has been reported nearby.
Minimum magnitude displayed is 2.5.

Coastal Water Temperatures

Place Temperature
No Stations Reporting

Nearby Weather Stations

Station Location Temp. Heat Index Dew Point Humidity Wind Precip. Elev Updated Type
Vyn's tower, Arizona City, AZ 104.5 °F 101 °F 49 °F 16% SE  at  13.0 mph 0.00 in / hr 1530 ft 11:14 AM MST Rapid Fire
Shadow Ridge, Casa Grande, AZ 110.7 °F 104 °F 34 °F 7% East  at  6.3 mph 0.00 in / hr 1395 ft 11:14 AM MST Rapid Fire
Wildflower, Casa Grande, AZ 106.5 °F 101 °F 36 °F 9% SE  at  4.9 mph 0.00 in / hr 1404 ft 11:13 AM MST Rapid Fire
Maricopa/Stanfield, Maricopa, AZ 107.2 °F 107 °F 56 °F 19% East  at  5.0 mph 0.00 in / hr 1247 ft 11:14 AM MST Rapid Fire
MesoWest MRCOP1 , Maricopa, AZ 97 °F 92 °F - - East  at  1 mph 0.00 in / hr 1213 ft 10:05 AM MST MADIS

Show More Stations Show Fewer Stations